Time,TemperatureF,DewpointF,PressureIn,WindDirection,WindDirectionDegrees,WindSpeedMPH,WindSpeedGustMPH,Humidity,HourlyPrecipIn,Conditions,Clouds,dailyrainin,SolarRadiationWatts/m^2,SoftwareType,DateUTC
2013-05-13 00:02:00,56.6,53.0,29.93,SW,215,0.0,-999.0,88,-99.99,,,0.05,0,weatherlink.com 1.10,2013-05-13 07:02:00,
2013-05-13 00:17:00,56.6,54.0,29.93,ESE,121,0.0,-999.0,89,-99.99,,,0.00,0,weatherlink.com 1.10,2013-05-13 07:17:00,
2013-05-13 00:33:00,56.8,54.0,29.93,SW,219,0.0,-999.0,89,-99.99,,,0.00,0,weatherlink.com 1.10,2013-05-13 07:33:00,
2013-05-13 00:47:00,56.7,53.0,29.93,ESE,123,0.0,-999.0,88,-99.99,,,0.00,0,weatherlink.com 1.10,2013-05-13 07:47:00,
2013-05-13 01:02:00,56.6,53.0,29.93,SSW,210,0.0,-999.0,88,-99.99,,,0.00,0,weatherlink.com 1.10,2013-05-13 08:02:00,
2013-05-13 01:18:00,56.4,53.0,29.93,South,177,2.0,-999.0,88,-99.99,,,0.00,0,weatherlink.com 1.10,2013-05-13 08:18:00,
2013-05-13 01:33:00,56.4,53.0,29.93,South,187,3.0,-999.0,88,-99.99,,,0.00,0,weatherlink.com 1.10,2013-05-13 08:33:00,
2013-05-13 01:48:00,56.5,53.0,29.92,SSW,211,1.0,-999.0,87,-99.99,,,0.00,0,weatherlink.com 1.10,2013-05-13 08:48:00,
2013-05-13 02:03:00,56.2,52.0,29.91,SW,223,5.0,-999.0,87,-99.99,,,0.00,0,weatherlink.com 1.10,2013-05-13 09:03:00,
2013-05-13 02:18:00,56.4,53.0,29.93,SSW,212,1.0,-999.0,87,-99.99,,,0.00,0,weatherlink.com 1.10,2013-05-13 09:18:00,
2013-05-13 02:33:00,56.4,53.0,29.93,South,190,0.0,-999.0,87,-99.99,,,0.00,0,weatherlink.com 1.10,2013-05-13 09:33:00,
2013-05-13 02:48:00,56.4,53.0,29.92,SSW,211,4.0,-999.0,88,-99.99,,,0.00,0,weatherlink.com 1.10,2013-05-13 09:48:00,
2013-05-13 03:03:00,56.2,53.0,29.92,SSW,200,3.0,-999.0,89,-99.99,,,0.00,0,weatherlink.com 1.10,2013-05-13 10:03:00,
2013-05-13 03:18:00,56.2,53.0,29.92,SSE,167,5.0,-999.0,89,-99.99,,,0.00,0,weatherlink.com 1.10,2013-05-13 10:18:00,
2013-05-13 03:33:00,56.0,53.0,29.92,South,186,5.0,-999.0,89,-99.99,,,0.00,0,weatherlink.com 1.10,2013-05-13 10:33:00,
2013-05-13 03:48:00,55.9,53.0,29.92,South,183,0.0,-999.0,90,-99.99,,,0.00,0,weatherlink.com 1.10,2013-05-13 10:48:00,
2013-05-13 04:03:00,55.8,53.0,29.90,South,187,5.0,-999.0,91,-99.99,,,0.00,0,weatherlink.com 1.10,2013-05-13 11:03:00,
2013-05-13 04:18:00,55.9,53.0,29.89,SW,221,4.0,-999.0,91,-99.99,,,0.00,0,weatherlink.com 1.10,2013-05-13 11:18:00,
2013-05-13 04:33:00,56.0,54.0,29.91,South,169,2.0,-999.0,91,-99.99,,,0.00,0,weatherlink.com 1.10,2013-05-13 11:33:00,
2013-05-13 04:48:00,55.8,53.0,29.90,SSE,153,0.0,-999.0,91,-99.99,,,0.00,0,weatherlink.com 1.10,2013-05-13 11:48:00,
2013-05-13 05:03:00,55.8,53.0,29.90,SW,227,3.0,-999.0,91,-99.99,,,0.00,0,weatherlink.com 1.10,2013-05-13 12:03:00,
2013-05-13 05:18:00,55.9,53.0,29.91,WSW,242,1.0,-999.0,90,-99.99,,,0.00,0,weatherlink.com 1.10,2013-05-13 12:18:00,
2013-05-13 05:33:00,56.0,53.0,29.91,South,179,1.0,-999.0,89,-99.99,,,0.00,0,weatherlink.com 1.10,2013-05-13 12:33:00,
2013-05-13 05:48:00,56.2,52.0,29.91,SSW,208,0.0,-999.0,87,-99.99,,,0.00,7,weatherlink.com 1.10,2013-05-13 12:48:00,
2013-05-13 06:03:00,56.2,52.0,29.90,SW,223,1.0,-999.0,87,-99.99,,,0.00,7,weatherlink.com 1.10,2013-05-13 13:03:00,
2013-05-13 06:18:00,56.4,52.0,29.89,SSW,213,5.0,-999.0,85,-99.99,,,0.00,28,weatherlink.com 1.10,2013-05-13 13:18:00,
2013-05-13 06:33:00,56.4,52.0,29.90,SSW,209,2.0,-999.0,85,-99.99,,,0.00,25,weatherlink.com 1.10,2013-05-13 13:33:00,
2013-05-13 06:48:00,56.6,52.0,29.89,SE,132,5.0,-999.0,85,-99.99,,,0.00,70,weatherlink.com 1.10,2013-05-13 13:48:00,
2013-05-13 07:02:00,56.8,52.0,29.90,WSW,242,2.0,-999.0,85,-99.99,,,0.00,74,weatherlink.com 1.10,2013-05-13 14:02:00,
2013-05-13 07:17:00,56.9,53.0,29.90,South,186,1.0,-999.0,85,-99.99,,,0.00,100,weatherlink.com 1.10,2013-05-13 14:17:00,
2013-05-13 07:32:00,57.2,53.0,29.90,South,182,1.0,-999.0,85,-99.99,,,0.00,86,weatherlink.com 1.10,2013-05-13 14:32:00,
2013-05-13 07:47:00,57.3,53.0,29.90,WSW,253,1.0,-999.0,85,-99.99,,,0.00,120,weatherlink.com 1.10,2013-05-13 14:47:00,
2013-05-13 08:02:00,57.7,53.0,29.90,SSW,207,0.0,-999.0,85,-99.99,,,0.00,178,weatherlink.com 1.10,2013-05-13 15:02:00,
2013-05-13 08:17:00,57.7,53.0,29.90,SW,223,2.0,-999.0,85,-99.99,,,0.00,139,weatherlink.com 1.10,2013-05-13 15:17:00,
2013-05-13 08:32:00,57.9,54.0,29.90,SW,229,1.0,-999.0,85,-99.99,,,0.00,118,weatherlink.com 1.10,2013-05-13 15:32:00,
2013-05-13 08:47:00,57.3,54.0,29.90,SW,215,1.0,-999.0,87,-99.99,,,0.00,58,weatherlink.com 1.10,2013-05-13 15:47:00,
2013-05-13 09:02:00,56.7,54.0,29.89,WSW,238,3.0,-999.0,90,-99.99,,,0.00,199,weatherlink.com 1.10,2013-05-13 16:02:00,
2013-05-13 09:17:00,57.0,54.0,29.89,SW,218,0.0,-999.0,89,-99.99,,,0.00,221,weatherlink.com 1.10,2013-05-13 16:17:00,
2013-05-13 09:32:00,57.5,54.0,29.89,WSW,244,2.0,-999.0,88,-99.99,,,0.00,211,weatherlink.com 1.10,2013-05-13 16:32:00,
2013-05-13 09:47:00,57.8,54.0,29.89,SW,217,0.0,-999.0,88,-99.99,,,0.00,176,weatherlink.com 1.10,2013-05-13 16:47:00,
2013-05-13 10:02:00,58.4,55.0,29.88,WSW,252,2.0,-999.0,88,-99.99,,,0.00,274,weatherlink.com 1.10,2013-05-13 17:02:00,
2013-05-13 10:17:00,59.0,55.0,29.88,SW,215,2.0,-999.0,87,-99.99,,,0.00,223,weatherlink.com 1.10,2013-05-13 17:17:00,
2013-05-13 10:32:00,59.0,55.0,29.87,SW,216,3.0,-999.0,85,-99.99,,,0.00,174,weatherlink.com 1.10,2013-05-13 17:32:00,
2013-05-13 10:47:00,59.4,55.0,29.86,SSW,205,2.0,-999.0,85,-99.99,,,0.00,350,weatherlink.com 1.10,2013-05-13 17:47:00,
2013-05-13 11:02:00,61.1,56.0,29.86,WSW,238,5.0,-999.0,82,-99.99,,,0.00,533,weatherlink.com 1.10,2013-05-13 18:02:00,
2013-05-13 11:18:00,61.6,56.0,29.86,South,179,1.0,-999.0,81,-99.99,,,0.00,387,weatherlink.com 1.10,2013-05-13 18:18:00,
2013-05-13 11:33:00,62.4,55.0,29.84,WSW,248,3.0,-999.0,78,-99.99,,,0.00,642,weatherlink.com 1.10,2013-05-13 18:33:00,
2013-05-13 11:48:00,61.8,55.0,29.84,WSW,244,6.0,-999.0,77,-99.99,,,0.00,492,weatherlink.com 1.10,2013-05-13 18:48:00,
2013-05-13 12:03:00,61.6,55.0,29.84,SW,234,5.0,-999.0,78,-99.99,,,0.00,236,weatherlink.com 1.10,2013-05-13 19:03:00,
2013-05-13 12:18:00,60.1,55.0,29.84,SSW,204,2.0,-999.0,83,-99.99,,,0.00,199,weatherlink.com 1.10,2013-05-13 19:18:00,
2013-05-13 12:33:00,59.6,56.0,29.83,WSW,254,1.0,-999.0,86,-99.99,,,0.01,265,weatherlink.com 1.10,2013-05-13 19:33:00,
2013-05-13 12:48:00,60.0,55.0,29.84,SW,217,1.0,-999.0,82,-99.99,,,0.01,218,weatherlink.com 1.10,2013-05-13 19:48:00,
2013-05-13 13:03:00,59.5,54.0,29.83,WSW,245,1.0,-999.0,82,-99.99,,,0.01,30,weatherlink.com 1.10,2013-05-13 20:03:00,
2013-05-13 13:18:00,57.5,54.0,29.84,SSW,208,3.0,-999.0,89,-99.99,,,0.07,74,weatherlink.com 1.10,2013-05-13 20:18:00,
2013-05-13 13:33:00,56.0,54.0,29.86,SW,231,2.0,-999.0,91,-99.99,,,0.08,84,weatherlink.com 1.10,2013-05-13 20:33:00,
2013-05-13 13:48:00,56.7,55.0,29.85,SSW,193,0.0,-999.0,92,-99.99,,,0.10,406,weatherlink.com 1.10,2013-05-13 20:48:00,
2013-05-13 14:03:00,59.0,57.0,29.85,SSW,202,5.0,-999.0,92,-99.99,,,0.10,279,weatherlink.com 1.10,2013-05-13 21:03:00,
2013-05-13 14:18:00,59.4,54.0,29.84,West,259,6.0,-999.0,83,-99.99,,,0.10,209,weatherlink.com 1.10,2013-05-13 21:18:00,
2013-05-13 14:33:00,59.0,54.0,29.85,WSW,257,3.0,-999.0,82,-99.99,,,0.10,162,weatherlink.com 1.10,2013-05-13 21:33:00,
2013-05-13 14:48:00,57.1,54.0,29.86,West,269,11.0,-999.0,88,-99.99,,,0.11,1005,weatherlink.com 1.10,2013-05-13 21:48:00,
2013-05-13 15:03:00,58.7,54.0,29.86,SW,232,12.0,-999.0,84,-99.99,,,0.11,933,weatherlink.com 1.10,2013-05-13 22:03:00,
2013-05-13 15:17:00,60.0,54.0,29.86,SW,235,9.0,-999.0,81,-99.99,,,0.11,828,weatherlink.com 1.10,2013-05-13 22:17:00,
2013-05-13 15:32:00,60.2,52.0,29.86,SSW,200,7.0,-999.0,74,-99.99,,,0.11,911,weatherlink.com 1.10,2013-05-13 22:32:00,
2013-05-13 15:47:00,59.2,52.0,29.88,SW,236,4.0,-999.0,76,-99.99,,,0.11,156,weatherlink.com 1.10,2013-05-13 22:47:00,
2013-05-13 16:02:00,55.8,52.0,29.88,SW,227,8.0,-999.0,88,-99.99,,,0.14,621,weatherlink.com 1.10,2013-05-13 23:02:00,
2013-05-13 16:17:00,55.1,50.0,29.88,SW,233,8.0,-999.0,83,-99.99,,,0.14,149,weatherlink.com 1.10,2013-05-13 23:17:00,
2013-05-13 16:33:00,55.8,51.0,29.89,SW,223,8.0,-999.0,83,-99.99,,,0.14,689,weatherlink.com 1.10,2013-05-13 23:33:00,
2013-05-13 16:48:00,55.5,50.0,29.91,West,262,16.0,-999.0,83,-99.99,,,0.14,543,weatherlink.com 1.10,2013-05-13 23:48:00,
2013-05-13 17:03:00,56.0,50.0,29.92,West,263,12.0,-999.0,80,-99.99,,,0.14,394,weatherlink.com 1.10,2013-05-14 00:03:00,
2013-05-13 17:18:00,55.8,48.0,29.91,WSW,258,3.0,-999.0,76,-99.99,,,0.14,606,weatherlink.com 1.10,2013-05-14 00:18:00,
2013-05-13 17:32:00,56.8,49.0,29.92,SSW,208,0.0,-999.0,74,-99.99,,,0.14,490,weatherlink.com 1.10,2013-05-14 00:32:00,
2013-05-13 17:47:00,56.9,47.0,29.93,SSW,199,3.0,-999.0,70,-99.99,,,0.14,445,weatherlink.com 1.10,2013-05-14 00:47:00,
2013-05-13 18:02:00,57.0,48.0,29.95,SW,215,6.0,-999.0,73,-99.99,,,0.14,397,weatherlink.com 1.10,2013-05-14 01:02:00,
2013-05-13 18:17:00,57.6,47.0,29.96,WSW,239,8.0,-999.0,68,-99.99,,,0.14,359,weatherlink.com 1.10,2013-05-14 01:17:00,
2013-05-13 18:32:00,57.3,46.0,29.97,SW,217,10.0,-999.0,66,-99.99,,,0.14,302,weatherlink.com 1.10,2013-05-14 01:32:00,
2013-05-13 18:47:00,56.8,45.0,29.95,SW,228,11.0,-999.0,66,-99.99,,,0.14,262,weatherlink.com 1.10,2013-05-14 01:47:00,
2013-05-13 19:02:00,56.0,43.0,29.94,SSW,196,6.0,-999.0,63,-99.99,,,0.14,220,weatherlink.com 1.10,2013-05-14 02:02:00,
2013-05-13 19:17:00,55.9,42.0,29.97,SW,226,4.0,-999.0,61,-99.99,,,0.14,165,weatherlink.com 1.10,2013-05-14 02:17:00,
2013-05-13 19:32:00,56.0,43.0,30.01,WNW,288,2.0,-999.0,62,-99.99,,,0.14,116,weatherlink.com 1.10,2013-05-14 02:32:00,
2013-05-13 19:47:00,55.4,42.0,30.02,SSW,209,5.0,-999.0,62,-99.99,,,0.14,72,weatherlink.com 1.10,2013-05-14 02:47:00,
2013-05-13 20:02:00,54.1,43.0,30.02,WSW,248,4.0,-999.0,67,-99.99,,,0.14,28,weatherlink.com 1.10,2013-05-14 03:02:00,
2013-05-13 20:17:00,53.1,43.0,30.03,SW,223,4.0,-999.0,69,-99.99,,,0.14,14,weatherlink.com 1.10,2013-05-14 03:17:00,
2013-05-13 20:32:00,52.2,43.0,30.03,SW,214,4.0,-999.0,71,-99.99,,,0.14,7,weatherlink.com 1.10,2013-05-14 03:32:00,
2013-05-13 20:47:00,51.7,44.0,30.03,SW,229,6.0,-999.0,75,-99.99,,,0.14,0,weatherlink.com 1.10,2013-05-14 03:47:00,
2013-05-13 21:02:00,51.2,44.0,30.04,SW,218,6.0,-999.0,77,-99.99,,,0.14,0,weatherlink.com 1.10,2013-05-14 04:02:00,
2013-05-13 21:17:00,50.8,44.0,30.05,NE,36,4.0,-999.0,78,-99.99,,,0.14,0,weatherlink.com 1.10,2013-05-14 04:17:00,
2013-05-13 21:32:00,50.6,44.0,30.06,WSW,241,2.0,-999.0,78,-99.99,,,0.14,0,weatherlink.com 1.10,2013-05-14 04:32:00,
2013-05-13 21:47:00,50.4,44.0,30.05,SW,222,2.0,-999.0,79,-99.99,,,0.14,0,weatherlink.com 1.10,2013-05-14 04:47:00,
2013-05-13 22:02:00,50.3,44.0,30.06,WNW,288,0.0,-999.0,80,-99.99,,,0.14,0,weatherlink.com 1.10,2013-05-14 05:02:00,
2013-05-13 22:17:00,49.7,44.0,30.06,SW,225,2.0,-999.0,81,-99.99,,,0.14,0,weatherlink.com 1.10,2013-05-14 05:17:00,
2013-05-13 22:32:00,49.6,44.0,30.07,SW,227,0.0,-999.0,81,-99.99,,,0.14,0,weatherlink.com 1.10,2013-05-14 05:32:00,
2013-05-13 22:47:00,49.4,44.0,30.06,SW,223,0.0,-999.0,82,-99.99,,,0.14,0,weatherlink.com 1.10,2013-05-14 05:47:00,
2013-05-13 23:02:00,49.3,44.0,30.06,SSW,202,3.0,-999.0,82,-99.99,,,0.14,0,weatherlink.com 1.10,2013-05-14 06:02:00,
2013-05-13 23:17:00,49.2,44.0,30.07,SW,229,3.0,-999.0,83,-99.99,,,0.14,0,weatherlink.com 1.10,2013-05-14 06:17:00,
2013-05-13 23:32:00,49.1,45.0,30.07,SW,232,0.0,-999.0,85,-99.99,,,0.14,0,weatherlink.com 1.10,2013-05-14 06:32:00,
2013-05-13 23:47:00,48.7,45.0,30.08,WSW,254,0.0,-999.0,86,-99.99,,,0.14,0,weatherlink.com 1.10,2013-05-14 06:47:00,